createdAt,value
2023-01-18T00:00:10.217Z,2.47
2023-01-18T00:02:37.312Z,2.59
2023-01-18T00:05:03.995Z,2.25
2023-01-18T00:07:31.376Z,2.14
2023-01-18T00:09:57.718Z,2.70
2023-01-18T00:12:24.140Z,2.70
2023-01-18T00:14:50.462Z,2.53
2023-01-18T00:17:16.821Z,2.27
2023-01-18T00:19:43.141Z,2.52
2023-01-18T00:22:09.489Z,2.69
2023-01-18T00:24:35.822Z,2.82
2023-01-18T00:27:02.245Z,2.69
2023-01-18T00:29:30.761Z,2.71
2023-01-18T00:31:57.132Z,2.50
2023-01-18T00:34:23.611Z,2.38
2023-01-18T00:36:49.960Z,2.49
2023-01-18T00:39:16.510Z,2.20
2023-01-18T00:42:02.857Z,2.41
2023-01-18T00:44:29.333Z,2.26
2023-01-18T00:46:56.056Z,2.41
2023-01-18T00:49:23.600Z,2.53
2023-01-18T00:51:52.038Z,2.14
2023-01-18T00:54:18.968Z,2.13
2023-01-18T00:56:50.455Z,2.00
2023-01-18T00:59:16.783Z,2.08
2023-01-18T01:01:44.883Z,2.14
2023-01-18T01:04:30.011Z,2.11
2023-01-18T01:06:56.489Z,1.69
2023-01-18T01:09:29.125Z,2.32
2023-01-18T01:12:16.206Z,2.34
2023-01-18T01:15:04.375Z,1.72
2023-01-18T01:17:51.230Z,2.44
2023-01-18T01:20:36.381Z,2.09
2023-01-18T01:23:28.201Z,2.10
2023-01-18T01:26:10.845Z,1.96
2023-01-18T01:28:39.752Z,2.13
2023-01-18T01:31:08.819Z,1.71
2023-01-18T01:33:37.323Z,2.20
2023-01-18T01:36:13.332Z,2.19
2023-01-18T01:38:43.570Z,2.25
2023-01-18T01:41:31.195Z,2.08
2023-01-18T01:44:24.467Z,1.81
2023-01-18T01:46:53.908Z,2.25
2023-01-18T01:49:44.070Z,1.97
2023-01-18T01:52:13.537Z,1.97
2023-01-18T01:54:49.443Z,2.12
2023-01-18T01:57:23.106Z,2.16
2023-01-18T01:59:59.172Z,1.79
2023-01-18T02:02:25.575Z,1.81
2023-01-18T02:04:55.080Z,1.99
2023-01-18T02:07:22.551Z,1.68
2023-01-18T02:09:50.365Z,1.80
2023-01-18T02:12:17.022Z,1.76
2023-01-18T02:14:43.512Z,1.56
2023-01-18T02:17:32.587Z,1.94
2023-01-18T02:20:31.846Z,1.94
2023-01-18T02:23:03.928Z,2.00
2023-01-18T02:26:07.963Z,2.09
2023-01-18T02:28:37.496Z,2.01
2023-01-18T02:31:17.988Z,2.10
2023-01-18T02:34:35.999Z,1.71
2023-01-18T02:37:16.937Z,2.20
2023-01-18T02:39:58.545Z,2.18
2023-01-18T02:42:49.246Z,1.93
2023-01-18T02:45:39.655Z,2.18
2023-01-18T02:48:07.629Z,1.90
2023-01-18T02:50:34.281Z,1.43
2023-01-18T02:53:00.783Z,1.85
2023-01-18T02:55:50.446Z,1.96
2023-01-18T02:58:21.705Z,1.14
2023-01-18T03:00:55.053Z,1.31
2023-01-18T03:03:22.875Z,1.57
2023-01-18T03:05:51.834Z,1.66
2023-01-18T03:08:36.503Z,1.92
2023-01-18T03:11:07.647Z,1.66
2023-01-18T03:14:01.925Z,1.89
2023-01-18T03:16:40.361Z,1.51
2023-01-18T03:19:39.251Z,1.77
2023-01-18T03:22:06.312Z,1.45
2023-01-18T03:24:41.005Z,1.35
2023-01-18T03:27:27.142Z,1.49
2023-01-18T03:30:12.939Z,1.48
2023-01-18T03:32:59.079Z,1.31
2023-01-18T03:35:28.593Z,1.41
2023-01-18T03:37:58.379Z,1.47
2023-01-18T03:40:30.054Z,1.54
2023-01-18T03:43:14.985Z,1.86
2023-01-18T03:45:46.483Z,1.76
2023-01-18T03:48:13.554Z,1.72
2023-01-18T03:51:00.310Z,1.66
2023-01-18T03:53:34.847Z,1.69
2023-01-18T03:56:16.216Z,1.40
2023-01-18T03:58:45.112Z,1.46
2023-01-18T04:01:11.876Z,1.54
2023-01-18T04:03:38.317Z,1.40
2023-01-18T04:06:06.269Z,1.63
2023-01-18T04:08:32.618Z,1.58
2023-01-18T04:10:58.984Z,1.24
2023-01-18T04:13:25.312Z,1.55
2023-01-18T04:15:51.728Z,1.26
2023-01-18T04:18:18.244Z,1.64
2023-01-18T04:20:44.553Z,1.67
2023-01-18T04:23:10.994Z,1.44
2023-01-18T04:25:40.666Z,1.73
2023-01-18T04:28:07.008Z,1.52
2023-01-18T04:30:33.361Z,1.61
2023-01-18T04:33:00.121Z,1.84
2023-01-18T04:35:26.881Z,1.74
2023-01-18T04:37:53.263Z,1.65
2023-01-18T04:40:19.637Z,1.51
2023-01-18T04:42:52.155Z,1.68
2023-01-18T04:45:19.576Z,1.79
2023-01-18T04:47:46.395Z,1.75
2023-01-18T04:50:12.876Z,1.80
2023-01-18T04:52:39.200Z,1.62
2023-01-18T04:55:06.009Z,1.86
2023-01-18T04:57:32.393Z,1.86
2023-01-18T05:00:00.122Z,1.69
2023-01-18T05:02:26.707Z,1.97
2023-01-18T05:04:53.109Z,1.68
2023-01-18T05:07:19.483Z,1.73
2023-01-18T05:09:46.764Z,1.47
2023-01-18T05:12:13.077Z,1.53
2023-01-18T05:14:39.389Z,1.66
2023-01-18T05:17:07.200Z,1.81
2023-01-18T05:19:33.916Z,0.94
2023-01-18T05:22:00.287Z,1.53
2023-01-18T05:24:29.763Z,1.69
2023-01-18T05:26:56.366Z,1.43
2023-01-18T05:29:22.685Z,0.90
2023-01-18T05:31:49.135Z,1.48
2023-01-18T05:34:16.013Z,1.34
2023-01-18T05:36:42.715Z,1.32
2023-01-18T05:39:09.515Z,1.45
2023-01-18T05:41:35.848Z,1.35
2023-01-18T05:44:02.925Z,1.09
2023-01-18T05:46:29.274Z,1.45
2023-01-18T05:48:57.452Z,1.50
2023-01-18T05:51:24.266Z,1.57
2023-01-18T05:53:50.581Z,1.31
2023-01-18T05:56:17.475Z,1.44
2023-01-18T05:58:43.813Z,1.46
2023-01-18T06:01:10.286Z,1.54
2023-01-18T06:03:37.034Z,1.43
2023-01-18T06:06:03.536Z,1.10
2023-01-18T06:08:30.049Z,1.49
2023-01-18T06:10:59.125Z,1.61
2023-01-18T06:13:30.136Z,1.65
2023-01-18T06:15:58.154Z,1.65
2023-01-18T06:18:25.751Z,1.94
2023-01-18T06:20:59.115Z,1.97
2023-01-18T06:23:27.871Z,2.00
2023-01-18T06:25:54.259Z,1.81
2023-01-18T06:28:22.521Z,1.71
2023-01-18T06:30:53.038Z,2.14
2023-01-18T06:33:19.523Z,2.09
2023-01-18T06:35:45.958Z,1.42
2023-01-18T06:38:13.283Z,2.07
2023-01-18T06:40:39.833Z,2.19
2023-01-18T06:43:08.499Z,2.18
2023-01-18T06:45:35.437Z,2.11
2023-01-18T06:48:02.294Z,2.23
2023-01-18T06:50:28.890Z,2.03
2023-01-18T06:52:56.142Z,1.63
2023-01-18T06:55:23.061Z,2.12
2023-01-18T06:57:51.855Z,2.15
2023-01-18T07:00:18.732Z,1.95
2023-01-18T07:02:45.306Z,1.35
2023-01-18T07:05:11.642Z,2.16
2023-01-18T07:07:37.992Z,2.17
2023-01-18T07:10:04.694Z,2.13
2023-01-18T07:12:31.166Z,2.04
2023-01-18T07:14:57.833Z,1.79
2023-01-18T07:17:24.389Z,2.21
2023-01-18T07:19:50.947Z,1.43
2023-01-18T07:22:17.296Z,1.45
2023-01-18T07:24:43.739Z,2.03
2023-01-18T07:27:10.397Z,1.63
2023-01-18T07:29:36.768Z,2.10
2023-01-18T07:32:03.308Z,2.01
2023-01-18T07:34:29.769Z,2.08
2023-01-18T07:36:56.255Z,2.00
2023-01-18T07:39:22.606Z,2.03
2023-01-18T07:41:49.059Z,1.72
2023-01-18T07:44:15.720Z,2.04
2023-01-18T07:46:43.254Z,2.13
2023-01-18T07:49:09.819Z,2.27
2023-01-18T07:51:36.473Z,1.98
2023-01-18T07:54:02.957Z,2.12
2023-01-18T07:56:29.295Z,2.22
2023-01-18T07:58:55.817Z,1.82
2023-01-18T08:01:23.027Z,2.49
2023-01-18T08:03:50.654Z,2.23
2023-01-18T08:06:24.872Z,2.52
2023-01-18T08:08:51.869Z,1.88
2023-01-18T08:11:19.471Z,2.57
2023-01-18T08:13:46.883Z,2.38
2023-01-18T08:16:13.291Z,2.56
2023-01-18T08:18:40.315Z,2.51
2023-01-18T08:21:10.919Z,2.71
2023-01-18T08:23:37.889Z,2.36
2023-01-18T08:26:04.771Z,2.35
2023-01-18T08:28:31.374Z,2.62
2023-01-18T08:31:26.896Z,2.89
2023-01-18T08:33:53.949Z,2.70
2023-01-18T08:36:22.571Z,2.78
2023-01-18T08:38:55.329Z,2.88
2023-01-18T08:41:23.718Z,2.87
2023-01-18T08:43:53.703Z,3.01
2023-01-18T08:46:20.941Z,3.02
2023-01-18T08:48:52.292Z,2.95
2023-01-18T08:51:19.181Z,2.85
2023-01-18T08:53:46.619Z,3.02
2023-01-18T08:56:13.430Z,2.46
2023-01-18T08:58:39.898Z,2.45
2023-01-18T09:01:08.116Z,3.09
2023-01-18T09:03:35.369Z,3.15
2023-01-18T09:06:03.880Z,3.53
2023-01-18T09:08:31.518Z,3.40
2023-01-18T09:11:07.146Z,3.59
2023-01-18T09:13:33.979Z,3.57
2023-01-18T09:16:07.589Z,3.31
2023-01-18T09:18:34.025Z,3.44
2023-01-18T09:21:06.079Z,3.70
2023-01-18T09:23:32.505Z,2.77
2023-01-18T09:26:20.947Z,3.58
2023-01-18T09:28:49.667Z,3.74
2023-01-18T09:31:16.178Z,3.64
2023-01-18T09:33:52.423Z,3.50
2023-01-18T09:36:21.379Z,3.62
2023-01-18T09:38:47.793Z,3.10
2023-01-18T09:41:33.050Z,3.86
2023-01-18T09:44:09.268Z,3.84
2023-01-18T09:46:39.745Z,3.60
2023-01-18T09:49:13.834Z,3.99
2023-01-18T09:51:56.933Z,3.89
2023-01-18T09:54:23.250Z,3.93
2023-01-18T09:57:05.459Z,3.99
2023-01-18T09:59:41.462Z,3.87
2023-01-18T10:02:23.891Z,3.48
2023-01-18T10:04:56.446Z,3.76
2023-01-18T10:07:27.582Z,3.90
2023-01-18T10:09:56.442Z,3.86
2023-01-18T10:12:36.308Z,4.30
2023-01-18T10:15:26.665Z,4.38
2023-01-18T10:17:56.546Z,3.59
2023-01-18T10:20:45.537Z,4.48
2023-01-18T10:23:31.512Z,3.56
2023-01-18T10:26:04.094Z,4.50
2023-01-18T10:28:46.693Z,4.25
2023-01-18T10:31:37.873Z,4.61
2023-01-18T10:34:18.299Z,4.49
2023-01-18T10:36:49.887Z,4.49
2023-01-18T10:39:39.772Z,4.71
2023-01-18T10:42:17.701Z,4.68
2023-01-18T10:44:44.918Z,4.28
2023-01-18T10:47:12.003Z,4.67
2023-01-18T10:49:41.867Z,4.27
2023-01-18T10:52:27.933Z,5.59
2023-01-18T10:55:01.215Z,5.80
2023-01-18T10:57:32.130Z,5.83
2023-01-18T10:59:59.570Z,5.83
2023-01-18T11:02:34.685Z,5.98
2023-01-18T11:05:16.178Z,6.44
2023-01-18T11:07:42.647Z,5.99
2023-01-18T11:10:24.878Z,6.29
2023-01-18T11:12:53.013Z,6.46
2023-01-18T11:15:19.304Z,6.20
2023-01-18T11:18:02.794Z,6.46
2023-01-18T11:20:53.023Z,6.14
2023-01-18T11:23:31.633Z,6.59
2023-01-18T11:26:01.907Z,6.42
2023-01-18T11:28:28.242Z,7.21
2023-01-18T11:30:54.483Z,7.46
2023-01-18T11:33:23.595Z,7.47
2023-01-18T11:35:56.170Z,7.32
2023-01-18T11:38:28.271Z,7.81
2023-01-18T11:41:23.359Z,7.85
2023-01-18T11:44:17.179Z,7.94
2023-01-18T11:46:47.572Z,7.24
2023-01-18T11:49:13.903Z,8.12
2023-01-18T11:52:10.454Z,9.29
2023-01-18T11:54:46.521Z,8.71
2023-01-18T11:57:14.266Z,7.67
2023-01-18T11:59:43.494Z,7.54
2023-01-18T12:02:35.137Z,6.95
2023-01-18T12:05:28.068Z,6.71
2023-01-18T12:08:07.984Z,6.14
2023-01-18T12:10:49.332Z,7.16
2023-01-18T12:13:35.075Z,6.85
2023-01-18T12:16:14.031Z,6.79
2023-01-18T12:18:55.184Z,6.76
2023-01-18T12:21:35.912Z,6.56
2023-01-18T12:24:34.012Z,6.85
2023-01-18T12:27:09.882Z,6.50
2023-01-18T12:29:51.529Z,6.92
2023-01-18T12:32:45.907Z,6.24
2023-01-18T12:35:25.205Z,6.94
2023-01-18T12:38:13.568Z,6.90
2023-01-18T12:40:50.461Z,6.77
2023-01-18T12:43:32.709Z,6.88
2023-01-18T12:46:07.574Z,6.62
2023-01-18T12:48:54.521Z,6.61
2023-01-18T12:51:24.404Z,6.52
2023-01-18T12:53:58.574Z,6.60
2023-01-18T12:56:32.964Z,6.53
2023-01-18T12:59:18.097Z,6.39
2023-01-18T13:01:51.690Z,6.99
2023-01-18T13:04:24.380Z,6.24
2023-01-18T13:06:56.674Z,6.47
2023-01-18T13:09:28.407Z,6.73
2023-01-18T13:11:58.304Z,6.82
2023-01-18T13:14:40.950Z,6.67
2023-01-18T13:17:46.268Z,6.63
2023-01-18T13:20:19.593Z,6.75
2023-01-18T13:23:23.709Z,7.16
2023-01-18T13:26:11.607Z,7.02
2023-01-18T13:28:38.493Z,7.11
2023-01-18T13:31:06.188Z,7.01
2023-01-18T13:33:36.360Z,7.19
2023-01-18T13:36:09.608Z,7.03
2023-01-18T13:38:42.050Z,7.20
2023-01-18T13:41:13.153Z,6.86
2023-01-18T13:43:46.119Z,6.75
2023-01-18T13:46:15.772Z,6.77
2023-01-18T13:48:50.307Z,6.74
2023-01-18T13:51:40.982Z,7.28
2023-01-18T13:54:10.060Z,7.49
2023-01-18T13:56:38.132Z,7.37
2023-01-18T13:59:26.196Z,7.35
2023-01-18T14:01:52.641Z,7.43
2023-01-18T14:04:30.134Z,7.10
2023-01-18T14:07:06.096Z,7.14
2023-01-18T14:09:45.256Z,6.95
2023-01-18T14:12:12.912Z,6.77
2023-01-18T14:14:57.396Z,7.05
2023-01-18T14:17:25.310Z,7.30
2023-01-18T14:20:13.518Z,7.08
2023-01-18T14:23:10.999Z,7.41
2023-01-18T14:25:55.195Z,7.14
2023-01-18T14:28:36.548Z,6.74
2023-01-18T14:31:04.665Z,7.00
2023-01-18T14:33:41.177Z,7.23
2023-01-18T14:36:18.730Z,6.98
2023-01-18T14:38:45.125Z,7.16
2023-01-18T14:41:17.055Z,7.13
2023-01-18T14:43:46.413Z,6.55
2023-01-18T14:46:22.733Z,7.22
2023-01-18T14:48:54.640Z,7.30
2023-01-18T14:51:24.078Z,6.51
2023-01-18T14:53:57.964Z,6.94
2023-01-18T14:56:26.465Z,6.60
2023-01-18T14:59:16.092Z,6.43
2023-01-18T15:01:50.192Z,7.06
2023-01-18T15:04:23.830Z,6.86
2023-01-18T15:07:07.651Z,6.44
2023-01-18T15:09:36.970Z,6.91
2023-01-18T15:12:08.341Z,6.87
2023-01-18T15:14:37.887Z,7.19
2023-01-18T15:17:11.478Z,7.19
2023-01-18T15:19:47.329Z,6.41
2023-01-18T15:22:16.771Z,7.01
2023-01-18T15:24:45.760Z,6.46
2023-01-18T15:27:18.177Z,6.84
2023-01-18T15:29:50.811Z,6.70
2023-01-18T15:32:22.345Z,6.53
2023-01-18T15:34:51.883Z,6.26
2023-01-18T15:37:27.087Z,6.86
2023-01-18T15:39:56.603Z,6.89
2023-01-18T15:42:30.241Z,6.73
2023-01-18T15:44:58.611Z,5.46
2023-01-18T15:47:28.733Z,6.35
2023-01-18T15:49:57.834Z,6.17
2023-01-18T15:52:44.922Z,6.84
2023-01-18T15:55:34.288Z,6.62
2023-01-18T15:58:04.242Z,6.72
2023-01-18T16:00:41.708Z,6.57
2023-01-18T16:03:26.461Z,6.42
2023-01-18T16:06:05.170Z,6.21
2023-01-18T16:08:32.449Z,6.48
2023-01-18T16:10:58.810Z,6.35
2023-01-18T16:13:38.529Z,6.64
2023-01-18T16:16:13.883Z,6.55
2023-01-18T16:18:43.359Z,6.23
2023-01-18T16:21:13.738Z,6.68
2023-01-18T16:23:45.062Z,6.29
2023-01-18T16:26:14.212Z,5.95
2023-01-18T16:28:40.690Z,5.55
2023-01-18T16:31:07.112Z,6.47
2023-01-18T16:33:33.532Z,6.10
2023-01-18T16:36:01.367Z,5.81
2023-01-18T16:38:27.709Z,6.53
2023-01-18T16:40:55.219Z,5.91
2023-01-18T16:43:28.533Z,6.34
2023-01-18T16:45:58.812Z,5.85
2023-01-18T16:48:27.176Z,6.08
2023-01-18T16:50:55.951Z,6.29
2023-01-18T16:53:35.224Z,6.25
2023-01-18T16:56:01.645Z,5.44
2023-01-18T16:58:28.689Z,5.93
2023-01-18T17:01:23.695Z,5.67
2023-01-18T17:03:50.943Z,5.79
2023-01-18T17:06:22.957Z,5.77
2023-01-18T17:08:54.054Z,4.69
2023-01-18T17:11:20.394Z,5.46
2023-01-18T17:13:47.623Z,5.11
2023-01-18T17:16:16.979Z,5.80
2023-01-18T17:19:00.411Z,5.13
2023-01-18T17:21:26.752Z,5.27
2023-01-18T17:23:53.119Z,5.22
2023-01-18T17:26:19.446Z,5.36
2023-01-18T17:28:45.882Z,5.62
2023-01-18T17:31:12.977Z,4.96
2023-01-18T17:33:40.414Z,5.14
2023-01-18T17:36:08.571Z,4.85
2023-01-18T17:38:35.069Z,5.57
2023-01-18T17:41:01.420Z,5.53
2023-01-18T17:43:33.873Z,5.54
2023-01-18T17:46:06.430Z,5.77
2023-01-18T17:48:44.624Z,5.65
2023-01-18T17:51:13.082Z,4.89
2023-01-18T17:53:41.010Z,5.94
2023-01-18T17:56:16.902Z,5.93
2023-01-18T17:58:47.993Z,5.80
2023-01-18T18:01:16.865Z,5.64
2023-01-18T18:03:47.634Z,5.53
2023-01-18T18:06:26.202Z,5.57
2023-01-18T18:08:56.822Z,5.54
2023-01-18T18:11:23.893Z,5.39
2023-01-18T18:13:50.226Z,5.51
2023-01-18T18:16:18.821Z,5.61
2023-01-18T18:18:45.729Z,5.23
2023-01-18T18:21:12.118Z,5.53
2023-01-18T18:23:38.486Z,5.18
2023-01-18T18:26:05.031Z,5.52
2023-01-18T18:28:33.126Z,5.67
2023-01-18T18:31:00.183Z,5.64
2023-01-18T18:33:28.331Z,5.39
2023-01-18T18:35:55.125Z,5.41
2023-01-18T18:38:23.006Z,5.20
2023-01-18T18:40:53.914Z,5.24
2023-01-18T18:43:21.052Z,5.55
2023-01-18T18:45:47.716Z,5.11
2023-01-18T18:48:14.449Z,5.18
2023-01-18T18:50:41.159Z,5.24
2023-01-18T18:53:07.992Z,5.29
2023-01-18T18:55:34.398Z,5.17
2023-01-18T18:58:00.776Z,5.25
2023-01-18T19:00:27.331Z,5.36
2023-01-18T19:03:01.165Z,5.35
2023-01-18T19:05:28.670Z,5.43
2023-01-18T19:07:55.586Z,5.56
2023-01-18T19:10:24.105Z,5.20
2023-01-18T19:12:50.457Z,4.92
2023-01-18T19:15:17.023Z,5.53
2023-01-18T19:17:43.372Z,5.14
2023-01-18T19:20:13.418Z,5.38
2023-01-18T19:22:39.915Z,5.44
2023-01-18T19:25:06.862Z,5.37
2023-01-18T19:27:33.193Z,5.23
2023-01-18T19:29:59.561Z,5.44
2023-01-18T19:32:25.959Z,5.35
2023-01-18T19:34:52.269Z,5.60
2023-01-18T19:37:18.621Z,5.56
2023-01-18T19:39:45.938Z,5.51
2023-01-18T19:42:12.289Z,5.42
2023-01-18T19:44:38.628Z,5.13
2023-01-18T19:47:04.972Z,5.33
2023-01-18T19:49:31.507Z,4.95
2023-01-18T19:51:57.868Z,5.12
2023-01-18T19:54:24.581Z,5.14
2023-01-18T19:56:51.359Z,5.12
2023-01-18T19:59:17.710Z,5.29
2023-01-18T20:01:44.673Z,5.21
2023-01-18T20:04:13.025Z,4.78
2023-01-18T20:06:39.649Z,4.95
2023-01-18T20:09:17.656Z,4.98
2023-01-18T20:11:44.915Z,4.83
2023-01-18T20:14:11.786Z,5.10
2023-01-18T20:16:38.885Z,4.99
2023-01-18T20:19:05.331Z,5.19
2023-01-18T20:21:31.747Z,5.06
2023-01-18T20:23:58.068Z,5.46
2023-01-18T20:26:35.780Z,5.16
2023-01-18T20:29:06.564Z,4.88
2023-01-18T20:31:34.436Z,5.23
2023-01-18T20:34:00.806Z,5.31
2023-01-18T20:36:27.815Z,5.15
2023-01-18T20:38:54.180Z,5.40
2023-01-18T20:41:20.777Z,5.38
2023-01-18T20:43:47.238Z,5.54
2023-01-18T20:46:13.743Z,5.49
2023-01-18T20:48:40.116Z,5.86
2023-01-18T20:51:09.992Z,5.65
2023-01-18T20:53:38.041Z,5.43
2023-01-18T20:56:08.326Z,5.79
2023-01-18T20:58:39.235Z,5.46
2023-01-18T21:01:16.632Z,5.46
2023-01-18T21:03:44.252Z,5.40
2023-01-18T21:06:11.221Z,5.61
2023-01-18T21:08:38.062Z,5.50
2023-01-18T21:11:04.999Z,5.16
2023-01-18T21:13:32.452Z,5.44
2023-01-18T21:15:59.690Z,5.63
2023-01-18T21:18:26.982Z,5.33
2023-01-18T21:20:53.810Z,5.67
2023-01-18T21:23:25.746Z,5.58
2023-01-18T21:25:54.429Z,5.47
2023-01-18T21:28:21.056Z,5.37
2023-01-18T21:30:51.776Z,5.51
2023-01-18T21:33:19.100Z,5.61
2023-01-18T21:35:46.187Z,5.19
2023-01-18T21:38:12.656Z,5.20
2023-01-18T21:40:39.562Z,5.24
2023-01-18T21:43:24.350Z,5.33
2023-01-18T21:45:56.510Z,5.35
2023-01-18T21:48:28.760Z,5.23
2023-01-18T21:51:18.392Z,4.89
2023-01-18T21:54:03.684Z,5.27
2023-01-18T21:56:30.124Z,4.78
2023-01-18T21:58:58.109Z,5.30
2023-01-18T22:01:26.728Z,5.12
2023-01-18T22:04:13.315Z,4.76
2023-01-18T22:06:39.984Z,4.95
2023-01-18T22:09:07.785Z,5.20
2023-01-18T22:11:34.208Z,4.71
2023-01-18T22:14:03.693Z,5.24
2023-01-18T22:16:30.955Z,5.21
2023-01-18T22:18:58.259Z,4.98
2023-01-18T22:21:25.384Z,5.05
2023-01-18T22:23:52.668Z,4.81
2023-01-18T22:26:20.382Z,5.02
2023-01-18T22:28:46.839Z,4.78
2023-01-18T22:31:13.947Z,4.87
2023-01-18T22:33:41.235Z,5.19
2023-01-18T22:36:08.208Z,5.13
2023-01-18T22:38:34.753Z,5.14
2023-01-18T22:41:12.857Z,5.18
2023-01-18T22:43:40.472Z,5.16
2023-01-18T22:46:08.119Z,4.62
2023-01-18T22:48:36.431Z,5.13
2023-01-18T22:51:04.532Z,4.80
2023-01-18T22:53:32.238Z,4.80
2023-01-18T22:56:03.404Z,4.83
2023-01-18T22:58:30.611Z,4.92
2023-01-18T23:00:57.252Z,4.98
2023-01-18T23:03:23.696Z,4.84
2023-01-18T23:05:57.215Z,4.99
2023-01-18T23:08:38.209Z,5.14
2023-01-18T23:11:05.252Z,4.57
2023-01-18T23:13:31.563Z,4.55
2023-01-18T23:16:16.783Z,5.17
2023-01-18T23:18:43.310Z,5.32
2023-01-18T23:21:09.606Z,5.03
2023-01-18T23:23:35.936Z,4.99
2023-01-18T23:26:02.304Z,5.24
2023-01-18T23:28:41.025Z,5.10
2023-01-18T23:31:08.532Z,5.25
2023-01-18T23:33:34.907Z,5.22
2023-01-18T23:36:01.265Z,5.22
2023-01-18T23:38:27.621Z,5.12
2023-01-18T23:41:15.840Z,5.42
2023-01-18T23:44:00.424Z,5.23
2023-01-18T23:46:45.206Z,5.34
2023-01-18T23:49:29.852Z,5.33
2023-01-18T23:52:14.738Z,5.32
2023-01-18T23:54:41.081Z,5.16
2023-01-18T23:57:07.405Z,5.13
2023-01-18T23:59:34.634Z,5.11
